Time;durP1;ratioP1;P1;durP2;ratioP2;P2;SDS_P1;SDS_P2;PMS_P1;PMS_P2;Temp;Humidity;BMP_temperature;BMP_pressure;BME280_temperature;BME280_humidity;BME280_pressure;Samples;Min_cycle;Max_cycle;Signal;HPM_P1;HPM_P2
2021/10/06 00:00:14;;;;;;;2.40;1.50;;;;;;;14.67;83.56;97691.69;4951488;28;20034;-58
2021/10/06 00:02:39;;;;;;;3.60;1.70;;;;;;;14.75;83.61;97705.22;4949925;28;20031;-58
2021/10/06 00:05:05;;;;;;;3.85;1.70;;;;;;;14.52;84.16;97698.72;4951314;28;20037;-59
2021/10/06 00:07:31;;;;;;;2.60;1.30;;;;;;;14.43;82.80;97694.91;4952864;28;20114;-58
2021/10/06 00:09:56;;;;;;;3.53;1.73;;;;;;;14.12;84.72;97690.69;4953152;28;20093;-59
2021/10/06 00:12:21;;;;;;;2.63;1.52;;;;;;;14.36;83.94;97689.19;4949565;28;20138;-58
2021/10/06 00:14:47;;;;;;;3.55;1.63;;;;;;;14.51;83.45;97697.06;4954691;28;20033;-58
2021/10/06 00:17:12;;;;;;;4.93;1.60;;;;;;;14.49;85.99;97702.38;4953549;28;20097;-59
2021/10/06 00:19:38;;;;;;;4.80;1.52;;;;;;;14.57;85.36;97712.41;4952326;28;20091;-59
2021/10/06 00:22:03;;;;;;;3.97;1.50;;;;;;;14.11;84.52;97716.03;4953251;28;20152;-59
2021/10/06 00:24:28;;;;;;;3.55;1.60;;;;;;;14.01;85.96;97726.25;4953025;28;20756;-58
2021/10/06 00:26:54;;;;;;;2.17;1.40;;;;;;;13.95;84.49;97729.25;4951490;28;20039;-61
2021/10/06 00:29:19;;;;;;;3.53;1.50;;;;;;;13.85;84.84;97717.59;4952310;28;20122;-59
2021/10/06 00:31:45;;;;;;;5.15;1.90;;;;;;;14.51;88.20;97734.63;4950608;28;20118;-60
2021/10/06 00:34:10;;;;;;;2.22;1.20;;;;;;;13.91;83.95;97740.00;4951266;28;20540;-58
2021/10/06 00:36:35;;;;;;;3.65;1.70;;;;;;;14.22;85.97;97739.84;4951871;28;20137;-59
2021/10/06 00:39:01;;;;;;;4.75;1.70;;;;;;;13.96;84.40;97733.53;4936242;28;20067;-59
2021/10/06 00:41:26;;;;;;;4.07;1.90;;;;;;;14.15;85.95;97743.81;4950655;28;20600;-58
2021/10/06 00:43:51;;;;;;;3.22;1.80;;;;;;;14.29;84.27;97744.75;4949107;28;20053;-58
2021/10/06 00:46:17;;;;;;;4.57;1.55;;;;;;;13.81;86.47;97743.16;4949968;28;20051;-58
2021/10/06 00:48:42;;;;;;;6.00;1.58;;;;;;;13.74;85.63;97749.69;4950352;28;20027;-59
2021/10/06 00:51:07;;;;;;;2.63;1.52;;;;;;;13.75;86.15;97747.88;4950750;28;20551;-59
2021/10/06 00:53:33;;;;;;;4.57;1.40;;;;;;;13.76;84.11;97747.81;4950998;28;20045;-58
2021/10/06 00:55:58;;;;;;;3.30;1.55;;;;;;;13.73;87.46;97763.72;4950376;28;20094;-58
2021/10/06 00:58:24;;;;;;;3.63;1.70;;;;;;;13.51;85.81;97769.34;4949838;28;20034;-59
2021/10/06 01:00:49;;;;;;;4.13;1.88;;;;;;;14.21;86.50;97774.91;4950944;28;20093;-57
2021/10/06 01:03:19;;;;;;;8.88;2.30;;;;;;;13.91;82.94;97772.28;4950063;28;20562;-59
2021/10/06 01:05:44;;;;;;;5.13;1.90;;;;;;;13.53;84.70;97772.72;4950433;28;20039;-57
2021/10/06 01:08:10;;;;;;;5.60;2.00;;;;;;;13.17;85.89;97771.19;4950006;28;20039;-57
2021/10/06 01:10:36;;;;;;;4.53;2.03;;;;;;;13.21;86.95;97775.31;4949386;28;20098;-59
2021/10/06 01:13:02;;;;;;;7.15;1.80;;;;;;;13.41;86.23;97778.66;4950481;28;20113;-58
2021/10/06 01:15:28;;;;;;;3.38;1.75;;;;;;;13.50;85.65;97783.38;4947746;28;20035;-57
2021/10/06 01:17:53;;;;;;;3.55;1.80;;;;;;;13.26;87.36;97775.91;4937434;28;20114;-58
2021/10/06 01:20:18;;;;;;;5.85;1.60;;;;;;;13.48;85.58;97778.22;4949279;28;20055;-59
2021/10/06 01:22:44;;;;;;;2.78;1.80;;;;;;;13.52;86.21;97781.50;4949298;28;20046;-57
2021/10/06 01:25:13;;;;;;;3.55;1.85;;;;;;;13.82;86.45;97783.31;4951575;28;20035;-57
2021/10/06 01:27:39;;;;;;;3.47;1.60;;;;;;;13.98;85.87;97775.41;4950570;28;20082;-58
2021/10/06 01:30:07;;;;;;;3.63;1.60;;;;;;;14.04;87.49;97781.16;4950110;28;20038;-58
2021/10/06 01:32:37;;;;;;;5.78;1.58;;;;;;;13.50;83.94;97780.75;4949658;28;20039;-58
2021/10/06 01:35:05;;;;;;;2.78;1.55;;;;;;;13.45;83.71;97780.16;4946791;28;20042;-57
2021/10/06 01:37:31;;;;;;;5.20;1.92;;;;;;;13.28;84.94;97779.28;4942495;28;20664;-59
2021/10/06 01:39:57;;;;;;;4.30;1.80;;;;;;;13.72;83.00;97783.00;4933215;28;20031;-58
2021/10/06 01:42:22;;;;;;;3.35;1.70;;;;;;;13.59;84.35;97792.50;4950410;28;20045;-57
2021/10/06 01:44:48;;;;;;;3.10;1.70;;;;;;;13.74;84.01;97782.91;4948609;28;20038;-57
2021/10/06 01:47:19;;;;;;;4.93;1.80;;;;;;;13.60;82.97;97789.78;4951760;28;20038;-57
2021/10/06 01:49:46;;;;;;;4.90;1.70;;;;;;;13.85;83.89;97791.00;4946615;28;20535;-57
2021/10/06 01:52:15;;;;;;;5.03;1.98;;;;;;;13.30;83.15;97798.41;4949310;28;20031;-58
2021/10/06 01:54:40;;;;;;;3.65;1.70;;;;;;;14.01;89.02;97794.44;4951380;28;20037;-58
2021/10/06 01:57:05;;;;;;;2.83;1.67;;;;;;;13.66;86.05;97801.72;4948779;28;20030;-58
2021/10/06 01:59:31;;;;;;;4.38;1.80;;;;;;;13.11;85.25;97797.72;4950050;28;20169;-58
2021/10/06 02:01:56;;;;;;;5.20;2.08;;;;;;;12.91;84.99;97796.19;4947025;28;20082;-59
2021/10/06 02:04:21;;;;;;;3.40;1.73;;;;;;;13.22;84.22;97797.97;4950300;28;20273;-58
2021/10/06 02:06:47;;;;;;;9.18;2.30;;;;;;;13.16;85.43;97811.41;4932674;28;20497;-61
2021/10/06 02:09:12;;;;;;;5.40;2.20;;;;;;;13.16;84.52;97816.66;4950109;28;20155;-58
2021/10/06 02:11:38;;;;;;;4.88;2.10;;;;;;;12.90;86.17;97818.91;4950726;28;20035;-59
2021/10/06 02:14:03;;;;;;;7.38;2.33;;;;;;;12.85;87.32;97822.69;4948303;28;20029;-58
2021/10/06 02:16:29;;;;;;;5.88;2.40;;;;;;;13.14;84.39;97821.13;4947817;28;20035;-59
2021/10/06 02:18:54;;;;;;;5.95;2.38;;;;;;;12.75;86.87;97824.94;4952835;28;20703;-59
2021/10/06 02:21:20;;;;;;;6.97;2.40;;;;;;;12.77;87.44;97820.47;4946578;28;20039;-59
2021/10/06 02:23:45;;;;;;;6.45;1.88;;;;;;;13.15;86.14;97828.03;4949353;28;20023;-59
2021/10/06 02:26:10;;;;;;;7.28;2.08;;;;;;;12.41;86.64;97824.06;4948135;28;20143;-60
2021/10/06 02:28:36;;;;;;;6.28;2.20;;;;;;;12.64;86.62;97825.50;4951421;28;20034;-59
2021/10/06 02:31:01;;;;;;;5.72;2.30;;;;;;;12.90;86.86;97821.53;4950626;28;20647;-60
2021/10/06 02:33:26;;;;;;;3.65;1.83;;;;;;;13.08;88.69;97816.22;4950893;28;20648;-58
2021/10/06 02:35:52;;;;;;;3.33;1.90;;;;;;;13.04;85.62;97818.16;4946847;28;20842;-59
2021/10/06 02:38:17;;;;;;;4.68;1.67;;;;;;;13.39;84.51;97822.44;4949493;28;20054;-59
2021/10/06 02:40:42;;;;;;;4.65;1.73;;;;;;;12.93;85.60;97826.56;4947730;28;20031;-59
2021/10/06 02:43:08;;;;;;;5.20;1.85;;;;;;;12.97;86.09;97829.88;4948782;28;20042;-59
2021/10/06 02:45:33;;;;;;;4.05;1.80;;;;;;;13.23;86.94;97833.72;4947757;28;20039;-59
2021/10/06 02:47:58;;;;;;;5.05;1.60;;;;;;;12.88;84.40;97838.22;4947493;28;20067;-58
2021/10/06 02:50:25;;;;;;;3.60;1.60;;;;;;;13.32;86.28;97847.28;4947503;28;20030;-60
2021/10/06 02:52:51;;;;;;;4.10;1.70;;;;;;;13.41;84.15;97846.75;4950412;28;20040;-59
2021/10/06 02:55:17;;;;;;;5.13;1.98;;;;;;;12.69;86.60;97848.81;4949063;28;20389;-59
2021/10/06 02:57:42;;;;;;;3.90;1.83;;;;;;;12.80;86.20;97841.25;4936375;28;20085;-60
2021/10/06 03:00:10;;;;;;;3.58;1.80;;;;;;;12.85;86.25;97839.22;4951785;28;20027;-58
2021/10/06 03:02:36;;;;;;;2.80;1.80;;;;;;;12.93;85.54;97837.03;4955279;28;20101;-58
2021/10/06 03:05:03;;;;;;;2.80;1.65;;;;;;;13.28;84.99;97836.91;4951762;28;20101;-56
2021/10/06 03:07:28;;;;;;;2.78;1.70;;;;;;;13.03;84.17;97833.94;4951100;28;20586;-58
2021/10/06 03:09:54;;;;;;;4.13;1.75;;;;;;;12.97;87.31;97831.66;4934542;28;20031;-59
2021/10/06 03:12:19;;;;;;;2.70;1.55;;;;;;;13.13;86.02;97835.16;4949066;28;20067;-59
2021/10/06 03:14:44;;;;;;;4.82;1.73;;;;;;;13.00;86.24;97836.72;4950072;28;20027;-59
2021/10/06 03:17:10;;;;;;;2.50;1.60;;;;;;;12.82;88.11;97844.63;4949885;28;20065;-58
2021/10/06 03:19:35;;;;;;;4.13;1.80;;;;;;;12.89;86.51;97838.13;4944039;28;20495;-59
2021/10/06 03:22:00;;;;;;;2.95;1.70;;;;;;;12.83;88.26;97855.94;4950918;28;20043;-59
2021/10/06 03:24:26;;;;;;;2.60;1.65;;;;;;;13.42;84.17;97858.94;4953491;28;20031;-58
2021/10/06 03:26:51;;;;;;;3.15;1.60;;;;;;;13.04;86.46;97862.66;4950496;28;20182;-59
2021/10/06 03:29:17;;;;;;;3.20;1.55;;;;;;;13.02;86.76;97861.06;4952132;28;20019;-59
2021/10/06 03:31:42;;;;;;;4.53;1.90;;;;;;;13.12;87.49;97851.78;4952405;28;20046;-60
2021/10/06 03:34:07;;;;;;;2.40;1.50;;;;;;;13.83;84.27;97863.66;4953271;28;20492;-58
2021/10/06 03:36:33;;;;;;;3.88;1.70;;;;;;;13.14;85.70;97875.25;4951070;28;20500;-60
2021/10/06 03:38:58;;;;;;;3.28;1.70;;;;;;;13.03;89.05;97888.91;4953019;28;20035;-60
2021/10/06 03:41:23;;;;;;;5.38;1.98;;;;;;;12.98;86.90;97888.34;4950816;28;20090;-59
2021/10/06 03:43:49;;;;;;;3.97;1.77;;;;;;;12.68;86.18;97883.75;4953646;28;20031;-59
2021/10/06 03:46:14;;;;;;;3.00;1.80;;;;;;;13.03;86.56;97884.56;4951469;28;20116;-60
2021/10/06 03:48:40;;;;;;;4.53;1.73;;;;;;;12.92;85.25;97885.09;4952405;28;20027;-58
2021/10/06 03:51:05;;;;;;;7.40;1.75;;;;;;;12.78;85.60;97890.22;4951510;28;20043;-59
2021/10/06 03:53:30;;;;;;;3.55;1.70;;;;;;;12.66;87.48;97893.44;4952311;28;20035;-60
2021/10/06 03:55:56;;;;;;;3.65;1.83;;;;;;;12.34;88.00;97901.16;4949801;28;20039;-59
2021/10/06 03:58:21;;;;;;;6.32;1.90;;;;;;;12.28;88.70;97896.25;4949555;28;20109;-58
2021/10/06 04:00:46;;;;;;;6.65;1.67;;;;;;;12.95;86.53;97896.34;4950361;28;20041;-58
2021/10/06 04:03:13;;;;;;;4.47;1.70;;;;;;;12.54;90.01;97902.78;4951893;28;20034;-60
2021/10/06 04:05:39;;;;;;;4.95;1.67;;;;;;;12.63;87.88;97906.72;4951470;28;20294;-59
2021/10/06 04:08:05;;;;;;;3.13;1.50;;;;;;;12.49;88.50;97913.47;4950934;28;20075;-58
2021/10/06 04:10:31;;;;;;;3.90;1.70;;;;;;;12.57;88.56;97912.22;4950370;28;20058;-59
2021/10/06 04:12:56;;;;;;;5.75;1.90;;;;;;;12.68;89.12;97920.38;4950836;28;20783;-58
2021/10/06 04:15:22;;;;;;;4.43;1.80;;;;;;;12.84;88.79;97912.59;4951201;28;21035;-59
2021/10/06 04:17:47;;;;;;;5.43;1.75;;;;;;;13.42;88.45;97934.94;4952214;28;20037;-60
2021/10/06 04:20:13;;;;;;;9.55;2.10;;;;;;;12.63;87.23;97938.94;4952057;28;20662;-60
2021/10/06 04:22:38;;;;;;;5.68;2.00;;;;;;;13.00;86.35;97928.38;4952212;28;20039;-59
2021/10/06 04:25:04;;;;;;;3.85;2.05;;;;;;;12.56;88.13;97926.25;4950409;28;20030;-59
2021/10/06 04:27:29;;;;;;;5.72;1.70;;;;;;;13.24;90.67;97940.16;4949914;28;20035;-59
2021/10/06 04:29:55;;;;;;;2.50;1.60;;;;;;;13.59;89.89;97945.31;4952668;28;20632;-59
2021/10/06 04:32:20;;;;;;;3.95;1.88;;;;;;;13.06;88.42;97941.97;4950552;28;20066;-59
2021/10/06 04:34:45;;;;;;;4.68;1.70;;;;;;;12.83;86.49;97939.69;4951418;28;20690;-58
2021/10/06 04:37:11;;;;;;;2.88;1.70;;;;;;;13.18;87.52;97932.66;4951575;28;20142;-59
2021/10/06 04:39:36;;;;;;;2.40;1.58;;;;;;;12.68;88.21;97931.72;4950788;28;20086;-59
2021/10/06 04:42:02;;;;;;;5.15;1.80;;;;;;;13.08;88.53;97944.50;4952203;28;20170;-59
2021/10/06 04:44:27;;;;;;;4.57;1.50;;;;;;;13.30;84.26;97939.88;4952132;28;20023;-59
2021/10/06 04:46:52;;;;;;;4.40;1.80;;;;;;;13.04;87.12;97940.38;4950871;28;20042;-59
2021/10/06 04:49:18;;;;;;;4.85;1.60;;;;;;;12.78;88.88;97947.78;4952361;28;20117;-60
2021/10/06 04:51:43;;;;;;;5.55;1.75;;;;;;;12.95;84.76;97940.84;4950362;28;20043;-58
2021/10/06 04:54:09;;;;;;;4.60;1.77;;;;;;;13.03;87.99;97941.28;4949952;28;20034;-59
2021/10/06 04:56:34;;;;;;;5.38;1.67;;;;;;;13.13;86.84;97952.16;4951768;28;20039;-59
2021/10/06 04:59:00;;;;;;;9.15;1.90;;;;;;;12.81;88.41;97944.16;4949134;28;20034;-58
2021/10/06 05:01:25;;;;;;;6.32;1.90;;;;;;;12.64;88.13;97952.88;4946705;28;20158;-60
2021/10/06 05:03:50;;;;;;;7.40;1.90;;;;;;;12.45;87.93;97959.00;4951151;28;20038;-60
2021/10/06 05:06:16;;;;;;;4.13;1.80;;;;;;;12.93;86.21;97957.47;4951533;28;20642;-58
2021/10/06 05:08:43;;;;;;;5.45;1.92;;;;;;;12.92;87.83;97955.78;4951780;28;20035;-61
2021/10/06 05:11:08;;;;;;;4.88;1.73;;;;;;;13.08;89.41;97952.38;4952820;28;20131;-60
2021/10/06 05:13:33;;;;;;;5.68;1.80;;;;;;;12.75;91.01;97961.03;4953353;28;20234;-59
2021/10/06 05:15:59;;;;;;;4.03;1.88;;;;;;;12.64;89.57;97960.72;4953155;28;20043;-59
2021/10/06 05:18:24;;;;;;;5.85;1.95;;;;;;;12.60;88.96;97969.66;4951133;28;20031;-60
2021/10/06 05:20:49;;;;;;;7.75;1.98;;;;;;;12.51;87.73;97971.78;4950928;28;20122;-58
2021/10/06 05:23:15;;;;;;;4.75;1.80;;;;;;;12.70;89.13;97976.97;4952541;28;20505;-60
2021/10/06 05:25:40;;;;;;;7.95;2.47;;;;;;;12.58;86.59;97968.88;4951958;28;20461;-59
2021/10/06 05:28:06;;;;;;;9.73;2.40;;;;;;;12.75;87.15;97965.41;4951665;28;20086;-58
2021/10/06 05:30:31;;;;;;;8.23;2.17;;;;;;;12.68;86.42;97967.47;4951649;28;20035;-60
2021/10/06 05:32:56;;;;;;;4.97;2.20;;;;;;;12.53;88.01;97969.97;4952297;28;20125;-59
2021/10/06 05:35:22;;;;;;;6.35;2.20;;;;;;;12.62;85.85;97966.03;4953288;28;20061;-61
2021/10/06 05:37:48;;;;;;;5.45;2.00;;;;;;;12.80;86.90;97966.88;4952465;28;20405;-59
2021/10/06 05:40:20;;;;;;;4.55;2.45;;;;;;;12.78;86.46;97967.88;5038504;28;20384;-63
2021/10/06 05:42:45;;;;;;;4.63;2.22;;;;;;;12.90;86.25;97957.66;5004291;28;20146;-62
2021/10/06 05:45:10;;;;;;;6.95;2.50;;;;;;;12.72;85.40;97958.56;5005526;28;20029;-61
2021/10/06 05:47:36;;;;;;;7.25;2.50;;;;;;;13.07;85.60;97971.63;5003719;28;20034;-59
2021/10/06 05:50:03;;;;;;;10.13;2.60;;;;;;;13.14;84.40;97974.78;5005604;28;20242;-60
2021/10/06 05:52:28;;;;;;;10.00;2.80;;;;;;;12.96;86.56;97966.94;5004994;28;20053;-61
2021/10/06 05:54:54;;;;;;;11.00;2.58;;;;;;;12.92;87.76;97984.59;5004923;28;20034;-59
2021/10/06 05:57:19;;;;;;;14.68;2.90;;;;;;;13.07;88.13;97989.97;5004655;28;20709;-59
2021/10/06 05:59:44;;;;;;;12.15;2.63;;;;;;;12.97;84.31;97978.25;5006164;28;20075;-60
2021/10/06 06:02:10;;;;;;;6.70;2.60;;;;;;;13.22;86.50;97973.47;5005664;28;20411;-59
2021/10/06 06:04:35;;;;;;;13.70;2.97;;;;;;;13.59;90.23;97975.94;5004548;28;20034;-59
2021/10/06 06:07:02;;;;;;;8.63;2.35;;;;;;;13.11;84.67;97965.31;5005140;28;20038;-61
2021/10/06 06:09:27;;;;;;;6.60;2.30;;;;;;;13.00;84.89;97978.13;5007546;28;20128;-59
2021/10/06 06:11:53;;;;;;;8.27;2.40;;;;;;;12.76;85.52;98004.59;5006942;28;20041;-59
2021/10/06 06:14:18;;;;;;;7.32;2.67;;;;;;;12.78;85.06;98010.59;5004293;28;20029;-60
2021/10/06 06:16:44;;;;;;;8.48;2.53;;;;;;;12.80;83.69;98011.38;5004634;28;20037;-59
2021/10/06 06:19:10;;;;;;;8.52;2.40;;;;;;;12.80;84.57;98018.38;5005915;28;20115;-59
2021/10/06 06:21:36;;;;;;;6.30;2.13;;;;;;;13.00;85.15;98028.69;5003753;28;20454;-61
2021/10/06 06:24:02;;;;;;;10.38;2.83;;;;;;;12.58;86.47;98044.75;5004732;28;20037;-60
2021/10/06 06:26:27;;;;;;;6.03;2.40;;;;;;;12.51;85.67;98059.91;5007760;28;20133;-62
2021/10/06 06:28:52;;;;;;;7.22;2.25;;;;;;;12.76;84.03;98064.78;5002162;28;20072;-59
2021/10/06 06:31:18;;;;;;;7.32;2.20;;;;;;;12.81;88.26;98069.78;5004289;28;20834;-60
2021/10/06 06:33:44;;;;;;;6.45;2.20;;;;;;;13.04;85.16;98066.06;5004801;28;20033;-61
2021/10/06 06:36:10;;;;;;;5.28;1.90;;;;;;;13.18;83.53;98076.69;5003086;28;20038;-58
2021/10/06 06:38:36;;;;;;;7.38;1.90;;;;;;;12.59;84.36;98077.84;5006503;28;20037;-60
2021/10/06 06:41:01;;;;;;;4.70;2.30;;;;;;;12.92;83.49;98088.44;5004763;28;20072;-59
2021/10/06 06:43:26;;;;;;;9.50;2.20;;;;;;;13.38;82.95;98082.69;5006337;28;20068;-62
2021/10/06 06:45:52;;;;;;;7.68;2.30;;;;;;;13.25;82.26;98078.06;5004700;28;20120;-59
2021/10/06 06:48:17;;;;;;;5.55;2.17;;;;;;;12.92;81.71;98076.22;5008352;28;20034;-59
2021/10/06 06:50:44;;;;;;;6.30;2.10;;;;;;;13.04;83.67;98084.38;4997330;28;20125;-58
2021/10/06 06:53:10;;;;;;;4.30;1.70;;;;;;;12.85;83.27;98090.53;4991382;28;20045;-59
2021/10/06 06:55:35;;;;;;;7.13;2.17;;;;;;;13.25;84.98;98088.56;4989629;28;20645;-60
2021/10/06 06:58:00;;;;;;;6.55;2.00;;;;;;;13.19;83.77;98085.38;4993036;28;20129;-60
2021/10/06 07:00:26;;;;;;;14.65;1.80;;;;;;;12.58;83.64;98091.84;4990060;28;20053;-60
2021/10/06 07:02:51;;;;;;;5.30;1.85;;;;;;;12.60;84.29;98092.63;4990324;28;20037;-58
2021/10/06 07:05:16;;;;;;;4.90;2.03;;;;;;;13.20;82.73;98094.94;4990848;28;20108;-58
2021/10/06 07:07:43;;;;;;;6.20;2.03;;;;;;;12.78;83.52;98083.88;4990226;28;20117;-59
2021/10/06 07:10:09;;;;;;;5.75;1.90;;;;;;;13.54;81.84;98086.22;4989434;28;20026;-59
2021/10/06 07:12:34;;;;;;;8.30;1.77;;;;;;;13.30;82.01;98086.56;4990410;28;20100;-60
2021/10/06 07:14:59;;;;;;;4.90;1.77;;;;;;;13.69;86.26;98087.22;4991159;28;20065;-59
2021/10/06 07:17:25;;;;;;;6.38;1.63;;;;;;;13.53;83.08;98095.03;4989915;28;20539;-59
2021/10/06 07:19:50;;;;;;;2.95;1.52;;;;;;;13.16;82.72;98094.25;4991527;28;20502;-59
2021/10/06 07:22:17;;;;;;;4.22;1.50;;;;;;;13.25;82.24;98093.78;4991910;28;20046;-59
2021/10/06 07:24:43;;;;;;;4.93;1.50;;;;;;;13.23;82.36;98090.41;4998267;28;20057;-58
2021/10/06 07:27:10;;;;;;;4.70;1.50;;;;;;;13.01;82.65;98100.22;4990625;28;20268;-61
2021/10/06 07:29:36;;;;;;;5.15;1.50;;;;;;;13.11;82.63;98106.72;4991855;28;20034;-59
2021/10/06 07:32:01;;;;;;;5.03;1.60;;;;;;;13.74;79.35;98106.16;4991020;28;20042;-60
2021/10/06 07:34:26;;;;;;;4.22;1.48;;;;;;;13.36;80.33;98108.13;4990844;28;20439;-61
2021/10/06 07:36:52;;;;;;;3.55;1.55;;;;;;;13.81;79.64;98104.94;4990297;28;20096;-60
2021/10/06 07:39:17;;;;;;;7.05;1.58;;;;;;;13.46;79.46;98110.22;4991225;28;20301;-59
2021/10/06 07:41:43;;;;;;;4.90;1.52;;;;;;;13.52;79.17;98111.66;4989159;28;20080;-60
2021/10/06 07:44:09;;;;;;;3.85;1.63;;;;;;;13.65;80.36;98107.47;4991591;28;20034;-60
2021/10/06 07:46:35;;;;;;;5.15;1.90;;;;;;;13.86;76.74;98100.28;4991234;28;20046;-60
2021/10/06 07:49:00;;;;;;;5.97;1.70;;;;;;;14.72;76.09;98115.81;4989641;28;20048;-60
2021/10/06 07:51:26;;;;;;;4.72;1.70;;;;;;;15.02;74.02;98118.47;4988445;28;20042;-59
2021/10/06 07:53:51;;;;;;;4.07;1.50;;;;;;;13.96;75.71;98119.00;4991241;28;20100;-59
2021/10/06 07:56:18;;;;;;;4.18;1.45;;;;;;;14.42;76.93;98121.78;4990124;28;20042;-59
2021/10/06 07:58:43;;;;;;;3.95;1.30;;;;;;;14.18;75.29;98120.47;4989330;28;20065;-60
2021/10/06 08:01:08;;;;;;;4.07;1.35;;;;;;;14.69;75.83;98131.72;4989095;28;20038;-61
2021/10/06 08:03:34;;;;;;;4.97;1.33;;;;;;;14.17;74.58;98131.91;4990527;28;20021;-60
2021/10/06 08:05:59;;;;;;;3.97;1.50;;;;;;;14.33;76.20;98126.69;4991072;28;20041;-61
2021/10/06 08:08:26;;;;;;;2.78;1.20;;;;;;;14.51;72.90;98132.72;4990158;28;20644;-60
2021/10/06 08:10:57;;;;;;;5.07;1.20;;;;;;;15.06;73.36;98134.91;4990051;28;20113;-61
2021/10/06 08:13:23;;;;;;;4.18;1.40;;;;;;;14.82;74.15;98132.72;4992816;28;20117;-61
2021/10/06 08:15:50;;;;;;;3.90;1.40;;;;;;;14.98;74.05;98139.72;4990991;28;20034;-61
2021/10/06 08:18:16;;;;;;;4.38;1.20;;;;;;;15.53;70.83;98133.94;4991002;28;20030;-61
2021/10/06 08:20:48;;;;;;;4.28;1.63;;;;;;;15.13;71.31;98136.25;4991182;28;20439;-61
2021/10/06 08:23:16;;;;;;;4.13;1.48;;;;;;;15.47;71.19;98143.94;4992225;28;20115;-60
2021/10/06 08:25:46;;;;;;;5.57;1.45;;;;;;;15.02;70.39;98154.41;4992594;28;20038;-61
2021/10/06 08:28:12;;;;;;;3.97;1.15;;;;;;;15.51;70.21;98148.94;4991801;28;20017;-60
2021/10/06 08:30:37;;;;;;;4.00;1.40;;;;;;;15.30;70.02;98152.81;4992656;28;20030;-62
2021/10/06 08:33:03;;;;;;;2.38;1.30;;;;;;;15.66;70.51;98148.94;4991555;28;20084;-59
2021/10/06 08:35:28;;;;;;;3.00;1.25;;;;;;;15.64;68.28;98146.44;4991960;28;20041;-61
2021/10/06 08:37:54;;;;;;;5.22;1.38;;;;;;;16.42;66.31;98153.16;4989736;28;20030;-60
2021/10/06 08:40:19;;;;;;;5.13;1.50;;;;;;;15.56;69.68;98156.53;4989810;28;20029;-61
2021/10/06 08:42:45;;;;;;;3.08;1.30;;;;;;;15.78;68.77;98162.25;4992393;28;20030;-60
2021/10/06 08:45:10;;;;;;;4.60;1.50;;;;;;;15.98;69.51;98161.06;4991682;28;20045;-61
2021/10/06 08:47:40;;;;;;;2.60;1.10;;;;;;;16.22;69.83;98162.31;4992785;28;20503;-60
2021/10/06 08:50:08;;;;;;;3.90;1.30;;;;;;;15.80;69.04;98163.00;4988931;28;20018;-60
2021/10/06 08:52:34;;;;;;;6.10;1.83;;;;;;;15.72;69.21;98164.38;4988129;28;20065;-61
2021/10/06 08:55:01;;;;;;;5.80;1.40;;;;;;;15.70;70.36;98167.09;4987767;28;20022;-59
2021/10/06 08:57:26;;;;;;;5.32;1.40;;;;;;;15.48;69.71;98164.88;4989556;28;20038;-60
2021/10/06 08:59:52;;;;;;;4.60;1.40;;;;;;;15.81;68.54;98163.88;4990611;28;20116;-59
2021/10/06 09:02:18;;;;;;;3.92;1.40;;;;;;;15.89;68.27;98166.03;4987732;28;20052;-60
2021/10/06 09:04:44;;;;;;;4.35;1.35;;;;;;;15.67;69.39;98171.69;4990223;28;20064;-59
2021/10/06 09:07:09;;;;;;;5.35;1.33;;;;;;;15.88;70.06;98167.81;4988176;28;20499;-59
2021/10/06 09:09:37;;;;;;;2.58;1.13;;;;;;;16.58;67.05;98169.72;4988046;28;20030;-61
2021/10/06 09:12:13;;;;;;;4.70;1.58;;;;;;;15.97;67.05;98172.53;4990108;28;20619;-59
2021/10/06 09:14:43;;;;;;;2.80;1.25;;;;;;;16.14;70.01;98173.31;4986943;28;20057;-61
2021/10/06 09:17:10;;;;;;;8.38;1.42;;;;;;;16.46;68.90;98175.72;4988461;28;20053;-61
2021/10/06 09:19:37;;;;;;;4.45;1.40;;;;;;;16.25;70.91;98178.75;4989114;28;20065;-60
2021/10/06 09:22:03;;;;;;;2.90;1.40;;;;;;;15.64;70.17;98179.75;4988852;28;20041;-59
2021/10/06 09:24:57;;;;;;;3.83;1.40;;;;;;;15.63;70.21;98172.81;4990512;28;20022;-59
2021/10/06 09:27:26;;;;;;;5.47;1.25;;;;;;;16.05;68.53;98179.13;4991897;28;20144;-60
2021/10/06 09:29:57;;;;;;;2.63;1.15;;;;;;;15.88;70.92;98186.25;4988636;28;20065;-59
2021/10/06 09:32:44;;;;;;;6.80;1.80;;;;;;;15.32;71.05;98185.94;4984873;28;20034;-60
2021/10/06 09:35:18;;;;;;;4.13;1.30;;;;;;;15.49;71.30;98187.59;4989597;28;20116;-59
2021/10/06 09:37:46;;;;;;;4.50;1.38;;;;;;;15.23;71.43;98192.56;4988346;28;20037;-60
2021/10/06 09:40:14;;;;;;;5.22;1.38;;;;;;;15.34;71.76;98193.75;4987265;28;20038;-60
2021/10/06 09:42:43;;;;;;;4.75;1.52;;;;;;;15.21;71.77;98190.97;4987808;28;20034;-60
2021/10/06 09:45:09;;;;;;;4.47;1.30;;;;;;;15.73;69.67;98189.72;4987751;28;20022;-59
2021/10/06 09:47:35;;;;;;;5.10;1.40;;;;;;;16.17;68.38;98191.50;4987373;28;20029;-59
2021/10/06 09:50:01;;;;;;;2.70;1.20;;;;;;;15.72;69.69;98190.69;4987983;28;20026;-60
2021/10/06 09:52:27;;;;;;;3.50;1.30;;;;;;;16.13;70.37;98196.13;4987580;28;20070;-59
2021/10/06 09:54:59;;;;;;;3.65;1.30;;;;;;;16.40;67.59;98189.28;4990546;28;20034;-59
2021/10/06 09:57:32;;;;;;;4.07;1.50;;;;;;;16.14;68.82;98196.97;4987514;28;20136;-59
2021/10/06 10:00:17;;;;;;;5.05;1.23;;;;;;;16.55;66.01;98188.31;4988503;28;20285;-61
2021/10/06 10:02:44;;;;;;;4.60;1.30;;;;;;;17.13;63.70;98197.00;4988047;28;20146;-61
2021/10/06 10:05:11;;;;;;;3.95;1.48;;;;;;;16.95;65.35;98191.09;4988403;28;20661;-61
2021/10/06 10:07:37;;;;;;;4.50;1.30;;;;;;;16.18;66.96;98196.69;4988966;28;20102;-62
2021/10/06 10:10:05;;;;;;;2.67;1.20;;;;;;;16.08;67.24;98202.59;4987312;28;20030;-61
2021/10/06 10:12:31;;;;;;;7.15;1.38;;;;;;;15.99;67.33;98204.84;4987858;28;20564;-61
2021/10/06 10:14:56;;;;;;;2.65;1.10;;;;;;;16.13;67.92;98206.63;4988738;28;20030;-60
2021/10/06 10:17:23;;;;;;;4.85;1.20;;;;;;;16.14;68.53;98205.72;4985417;28;20556;-59
2021/10/06 10:20:00;;;;;;;4.05;1.65;;;;;;;15.71;69.80;98210.84;4988670;28;20018;-59
2021/10/06 10:22:29;;;;;;;5.43;1.40;;;;;;;16.13;68.86;98213.69;4996206;28;20602;-59
2021/10/06 10:24:55;;;;;;;6.07;1.20;;;;;;;16.42;69.40;98211.94;4987602;28;20065;-59
2021/10/06 10:27:22;;;;;;;4.20;1.30;;;;;;;16.30;69.62;98210.03;4991976;28;20145;-58
2021/10/06 10:30:05;;;;;;;3.42;1.15;;;;;;;16.25;71.22;98215.59;4991292;28;20030;-59
2021/10/06 10:32:44;;;;;;;;;;;;;;;16.86;69.11;98226.78;4991688;28;20411;-61
2021/10/06 10:35:14;;;;;;;10.40;1.25;;;;;;;15.53;69.74;98228.56;4992377;28;20376;-62
2021/10/06 10:37:46;;;;;;;4.03;1.05;;;;;;;15.23;71.89;98226.72;4991321;28;20034;-61
2021/10/06 10:40:30;;;;;;;5.10;1.25;;;;;;;14.27;75.46;98236.25;4990934;28;20088;-60
2021/10/06 10:43:00;;;;;;;6.60;1.63;;;;;;;14.32;75.43;98233.41;4993280;28;20034;-60
2021/10/06 10:46:10;;;;;;;4.20;1.40;;;;;;;14.35;76.66;98235.84;4989111;28;20096;-59
2021/10/06 10:48:52;;;;;;;7.13;1.70;;;;;;;14.35;77.65;98238.47;4929558;29;20031;-61
2021/10/06 10:51:17;;;;;;;5.18;1.30;;;;;;;14.23;76.83;98241.78;4935331;28;20883;-60
2021/10/06 10:53:51;;;;;;;7.25;1.40;;;;;;;14.51;75.64;98241.16;4967045;28;20046;-59
2021/10/06 10:56:40;;;;;;;3.28;1.30;;;;;;;14.23;78.52;98233.91;4990769;28;20057;-61
2021/10/06 10:59:09;;;;;;;5.00;1.55;;;;;;;14.68;77.76;98240.28;4989622;28;20030;-60
2021/10/06 11:01:52;;;;;;;2.60;1.38;;;;;;;14.53;78.65;98241.09;4989776;28;20045;-60
2021/10/06 11:04:27;;;;;;;7.88;1.20;;;;;;;14.73;76.84;98237.41;4991378;28;20050;-59
2021/10/06 11:07:19;;;;;;;2.42;1.10;;;;;;;15.22;72.89;98246.06;4994286;28;20034;-59
2021/10/06 11:09:50;;;;;;;6.53;1.30;;;;;;;15.06;75.42;98233.88;5000581;28;20034;-59
2021/10/06 11:12:18;;;;;;;6.57;1.30;;;;;;;15.24;72.96;98238.09;4990559;28;20057;-62
2021/10/06 11:14:44;;;;;;;5.22;1.30;;;;;;;15.61;73.87;98241.25;4993776;28;20045;-59
2021/10/06 11:17:14;;;;;;;2.70;1.20;;;;;;;15.99;71.90;98239.06;4989466;28;20525;-59
2021/10/06 11:19:43;;;;;;;2.55;1.20;;;;;;;15.77;73.41;98241.25;4990657;28;20026;-61
2021/10/06 11:22:23;;;;;;;4.07;1.40;;;;;;;16.06;70.89;98241.31;4992128;28;20060;-60
2021/10/06 11:25:09;;;;;;;5.05;1.25;;;;;;;16.58;68.68;98236.38;4993107;28;20632;-60
2021/10/06 11:27:47;;;;;;;4.30;1.17;;;;;;;17.01;69.02;98239.94;4992914;28;20092;-60
2021/10/06 11:30:14;;;;;;;5.82;1.73;;;;;;;15.83;69.28;98248.78;4991405;28;20033;-59
2021/10/06 11:32:48;;;;;;;4.45;1.40;;;;;;;16.13;71.40;98243.47;4994539;28;20026;-60